Time;durP1;ratioP1;P1;durP2;ratioP2;P2;SDS_P1;SDS_P2;PMS_P1;PMS_P2;Temp;Humidity;BMP_temperature;BMP_pressure;BME280_temperature;BME280_humidity;BME280_pressure;Samples;Min_cycle;Max_cycle;Signal;HPM_P1;HPM_P2
2023/03/04 00:00:46;;;;;;;94.20;38.28;;;;;;;-0.33;61.94;100777.84;10343603;28;20049;-79
2023/03/04 00:05:48;;;;;;;94.80;38.28;;;;;;;-0.32;61.76;100777.00;10339136;28;20780;-79
2023/03/04 00:10:50;;;;;;;86.63;36.47;;;;;;;-0.29;62.04;100771.84;10350054;28;20056;-79
2023/03/04 00:15:52;;;;;;;89.00;37.67;;;;;;;-0.13;62.07;100780.41;10359747;28;20060;-79
2023/03/04 00:20:54;;;;;;;86.18;36.58;;;;;;;-0.05;61.78;100781.22;10355097;28;20073;-79
2023/03/04 00:25:55;;;;;;;90.57;38.03;;;;;;;0.07;61.66;100774.31;10354538;28;20054;-79
2023/03/04 00:30:57;;;;;;;94.53;38.05;;;;;;;0.15;61.73;100772.56;10350576;28;20049;-79
2023/03/04 00:35:59;;;;;;;93.05;39.97;;;;;;;0.21;61.78;100769.13;10348939;28;20061;-79
2023/03/04 00:41:01;;;;;;;85.95;38.60;;;;;;;0.23;61.92;100763.09;10348908;28;20038;-79
2023/03/04 00:46:03;;;;;;;91.35;38.85;;;;;;;0.21;61.78;100767.41;10342730;28;20054;-79
2023/03/04 00:51:05;;;;;;;98.95;42.13;;;;;;;0.30;62.02;100761.38;10348111;28;20050;-79
2023/03/04 00:56:07;;;;;;;103.15;43.00;;;;;;;0.44;61.95;100757.81;10343351;28;21499;-79
2023/03/04 01:01:09;;;;;;;81.65;37.42;;;;;;;0.59;61.39;100756.06;10340839;28;20492;-79
2023/03/04 01:06:11;;;;;;;91.43;40.67;;;;;;;0.68;61.17;100750.81;10350262;28;20711;-80
2023/03/04 01:11:13;;;;;;;88.60;40.50;;;;;;;0.66;61.18;100740.56;10349247;28;21378;-80
2023/03/04 01:16:15;;;;;;;89.50;39.90;;;;;;;0.71;60.93;100738.78;10346909;28;20129;-80
2023/03/04 01:21:16;;;;;;;93.10;41.55;;;;;;;0.72;61.11;100730.22;10363597;28;20427;-79
2023/03/04 01:26:18;;;;;;;98.55;42.63;;;;;;;0.66;61.17;100732.84;10342853;28;20065;-80
2023/03/04 01:31:20;;;;;;;98.15;43.28;;;;;;;0.72;61.07;100722.50;10348396;28;20054;-79
2023/03/04 01:36:21;;;;;;;98.10;43.08;;;;;;;0.76;61.08;100718.16;10347439;28;20050;-80
2023/03/04 01:41:25;;;;;;;106.75;46.80;;;;;;;0.51;61.58;100712.34;10342217;28;20419;-80
2023/03/04 01:46:29;;;;;;;100.75;45.65;;;;;;;0.50;61.34;100703.75;10345164;28;21625;-80
2023/03/04 01:51:30;;;;;;;101.40;45.42;;;;;;;0.55;61.59;100701.16;10345290;28;20400;-79
2023/03/04 01:56:38;;;;;;;102.68;45.50;;;;;;;0.65;61.61;100689.91;10340975;28;20565;-79
2023/03/04 02:01:47;;;;;;;107.75;47.28;;;;;;;0.74;61.18;100686.44;10344770;28;20104;-80
2023/03/04 02:06:50;;;;;;;108.22;47.72;;;;;;;0.68;61.31;100687.34;10346427;28;20508;-80
2023/03/04 02:11:52;;;;;;;112.05;48.67;;;;;;;0.74;61.18;100677.00;10343504;28;20538;-80
2023/03/04 02:16:54;;;;;;;105.28;47.88;;;;;;;0.70;61.20;100667.59;10343770;28;20056;-79
2023/03/04 02:21:55;;;;;;;116.53;50.38;;;;;;;0.72;61.22;100670.13;10347868;28;20515;-80
2023/03/04 02:26:57;;;;;;;100.28;46.88;;;;;;;0.84;61.13;100673.47;10362724;28;20515;-80
2023/03/04 02:31:59;;;;;;;105.05;46.13;;;;;;;0.93;61.02;100675.13;10363862;28;20137;-80
2023/03/04 02:37:02;;;;;;;108.18;48.30;;;;;;;1.04;60.75;100671.56;10365348;28;20093;-80
2023/03/04 02:42:04;;;;;;;98.07;45.47;;;;;;;0.93;61.11;100668.22;10355909;28;20487;-79
2023/03/04 02:47:10;;;;;;;103.03;48.35;;;;;;;0.98;60.79;100661.31;10358108;28;20060;-80
2023/03/04 02:52:25;;;;;;;113.68;47.92;;;;;;;1.07;61.08;100656.09;10354434;28;20054;-79
2023/03/04 02:57:26;;;;;;;104.32;47.00;;;;;;;1.05;60.83;100654.41;10358998;28;20046;-79
2023/03/04 03:02:28;;;;;;;107.07;47.58;;;;;;;1.12;60.84;100656.88;10362287;28;20057;-79
2023/03/04 03:07:30;;;;;;;102.72;46.38;;;;;;;1.28;60.83;100652.44;10363649;28;20133;-79
2023/03/04 03:12:31;;;;;;;101.85;49.50;;;;;;;1.27;60.57;100654.16;10363706;28;20046;-79
2023/03/04 03:17:33;;;;;;;100.85;47.35;;;;;;;1.27;60.88;100650.72;10365136;28;20495;-79
2023/03/04 03:22:35;;;;;;;101.40;47.90;;;;;;;1.46;60.52;100643.66;10361610;28;20153;-80
2023/03/04 03:27:37;;;;;;;97.90;45.97;;;;;;;1.52;60.29;100636.72;10365168;28;20057;-79
2023/03/04 03:32:38;;;;;;;93.97;45.22;;;;;;;1.61;60.11;100639.16;10355176;28;20054;-80
2023/03/04 03:37:40;;;;;;;87.40;45.38;;;;;;;1.62;60.24;100629.72;10358506;28;20538;-79
2023/03/04 03:42:42;;;;;;;93.75;45.72;;;;;;;1.62;60.23;100638.31;10351595;28;20050;-79
2023/03/04 03:47:44;;;;;;;91.43;45.50;;;;;;;1.78;59.95;100631.22;10357214;28;20049;-80
2023/03/04 03:52:45;;;;;;;91.13;44.95;;;;;;;1.85;59.90;100622.50;10351913;28;20108;-80
2023/03/04 03:57:47;;;;;;;91.47;45.50;;;;;;;1.92;59.90;100631.88;10351744;28;20427;-79
2023/03/04 04:02:59;;;;;;;87.65;44.50;;;;;;;1.95;59.77;100630.09;10365574;28;20059;-79
2023/03/04 04:08:01;;;;;;;86.32;44.30;;;;;;;2.04;59.46;100630.00;10349570;28;20069;-79
2023/03/04 04:13:03;;;;;;;87.13;44.08;;;;;;;2.16;59.36;100622.06;10343269;28;20054;-80
2023/03/04 04:18:05;;;;;;;95.75;45.88;;;;;;;2.16;59.26;100616.06;10346215;28;20759;-79
2023/03/04 04:23:07;;;;;;;90.57;44.20;;;;;;;2.14;59.12;100617.81;10339455;28;20753;-79
2023/03/04 04:28:09;;;;;;;86.70;43.92;;;;;;;2.09;59.12;100611.88;10346725;28;20046;-79
2023/03/04 04:33:12;;;;;;;88.53;44.08;;;;;;;2.05;59.33;100616.19;10346085;28;20595;-79
2023/03/04 04:38:14;;;;;;;101.60;47.53;;;;;;;2.05;59.36;100605.06;10349940;28;20050;-79
2023/03/04 04:43:16;;;;;;;96.35;46.50;;;;;;;2.01;59.15;100616.28;10354314;28;20129;-80
2023/03/04 04:48:17;;;;;;;87.90;43.85;;;;;;;2.01;59.09;100611.13;10355580;28;20056;-80
2023/03/04 04:53:19;;;;;;;86.93;42.50;;;;;;;1.99;59.25;100613.72;10352076;28;20061;-80
2023/03/04 04:58:21;;;;;;;89.28;42.60;;;;;;;1.94;59.35;100605.22;10347355;28;20046;-80
2023/03/04 05:03:23;;;;;;;84.07;41.45;;;;;;;1.94;59.49;100609.50;10337851;28;20659;-80
2023/03/04 05:08:24;;;;;;;92.55;43.75;;;;;;;1.95;59.35;100601.72;10343397;28;20052;-80
2023/03/04 05:13:26;;;;;;;86.70;41.65;;;;;;;2.01;59.23;100599.06;10331312;28;20056;-80
2023/03/04 05:18:28;;;;;;;84.43;41.83;;;;;;;2.00;59.28;100601.69;10335763;28;20841;-80
2023/03/04 05:23:33;;;;;;;87.65;42.50;;;;;;;1.93;59.44;100606.06;10343303;28;20542;-80
2023/03/04 05:28:36;;;;;;;88.40;42.70;;;;;;;1.95;59.31;100599.16;10343592;28;20070;-80
2023/03/04 05:33:38;;;;;;;81.32;40.47;;;;;;;1.96;59.41;100612.91;10346255;28;20087;-80
2023/03/04 05:38:39;;;;;;;86.28;40.30;;;;;;;1.92;59.39;100604.38;10346139;28;20045;-80
2023/03/04 05:43:42;;;;;;;81.75;41.20;;;;;;;1.87;59.61;100611.31;10337579;28;20439;-80
2023/03/04 05:48:44;;;;;;;83.75;41.47;;;;;;;1.87;59.43;100605.31;10330668;28;20542;-80
2023/03/04 05:53:46;;;;;;;85.78;42.50;;;;;;;1.78;59.78;100608.88;10332795;28;20427;-80
2023/03/04 05:58:47;;;;;;;84.97;42.28;;;;;;;1.78;59.86;100611.44;10334090;28;20069;-80
2023/03/04 06:03:49;;;;;;;82.55;41.30;;;;;;;1.87;59.72;100619.03;10326651;28;20144;-80
2023/03/04 06:08:51;;;;;;;81.93;41.03;;;;;;;1.95;59.67;100614.63;10333310;28;20140;-80
2023/03/04 06:13:53;;;;;;;87.63;42.72;;;;;;;1.92;59.78;100622.44;10336239;28;20132;-80
2023/03/04 06:18:55;;;;;;;90.90;42.97;;;;;;;2.00;59.58;100630.91;10336153;28;20963;-80
2023/03/04 06:23:56;;;;;;;90.40;42.90;;;;;;;2.10;59.45;100634.22;10345776;28;20046;-80
2023/03/04 06:28:58;;;;;;;90.00;43.13;;;;;;;2.15;59.23;100635.00;10344336;28;20045;-80
2023/03/04 06:34:00;;;;;;;89.20;42.15;;;;;;;2.19;59.49;100642.66;10342445;28;20061;-80
2023/03/04 06:39:04;;;;;;;85.90;42.40;;;;;;;2.25;59.25;100634.00;10344014;28;20046;-80
2023/03/04 06:44:06;;;;;;;80.93;41.83;;;;;;;2.20;59.25;100641.81;10337289;28;20046;-80
2023/03/04 06:49:07;;;;;;;82.40;40.45;;;;;;;2.33;59.15;100646.78;10349538;28;20042;-80
2023/03/04 06:54:09;;;;;;;86.05;42.42;;;;;;;2.33;59.08;100650.22;10352215;28;20061;-80
2023/03/04 06:59:11;;;;;;;95.70;44.25;;;;;;;2.37;59.16;100641.56;10344817;28;20827;-80
2023/03/04 07:04:13;;;;;;;80.38;40.60;;;;;;;2.46;58.93;100649.13;10350971;28;20048;-79
2023/03/04 07:09:15;;;;;;;66.97;34.80;;;;;;;2.42;58.98;100652.66;10348883;28;20108;-80
2023/03/04 07:14:17;;;;;;;57.83;27.70;;;;;;;2.62;58.67;100660.94;10354668;28;20054;-79
2023/03/04 07:19:19;;;;;;;62.70;30.17;;;;;;;2.77;58.44;100668.44;10352410;28;20072;-80
2023/03/04 07:24:20;;;;;;;55.58;28.35;;;;;;;2.95;58.27;100673.31;10353850;28;20056;-80
2023/03/04 07:29:22;;;;;;;46.10;23.73;;;;;;;3.01;57.88;100674.91;10345358;28;20045;-79
2023/03/04 07:34:24;;;;;;;67.90;34.60;;;;;;;3.26;57.73;100681.38;10346822;28;20089;-80
2023/03/04 07:39:27;;;;;;;62.25;30.40;;;;;;;3.29;57.57;100671.00;10346187;28;20034;-80
2023/03/04 07:44:29;;;;;;;74.25;36.42;;;;;;;3.40;57.50;100678.53;10353040;28;20049;-79
2023/03/04 07:49:30;;;;;;;55.25;29.15;;;;;;;3.38;57.26;100675.09;10346785;28;20045;-79
2023/03/04 07:54:32;;;;;;;70.75;35.63;;;;;;;3.49;57.28;100676.63;10344128;28;20050;-80
2023/03/04 07:59:35;;;;;;;57.63;28.38;;;;;;;3.64;56.73;100675.50;10339585;28;20379;-79
2023/03/04 08:04:37;;;;;;;55.38;26.98;;;;;;;3.64;56.94;100678.91;10346268;28;20054;-79
2023/03/04 08:09:39;;;;;;;64.28;31.38;;;;;;;3.75;56.79;100676.97;10341339;28;20100;-80
2023/03/04 08:14:44;;;;;;;57.83;26.40;;;;;;;3.89;56.47;100684.47;10344918;28;20144;-79
2023/03/04 08:19:45;;;;;;;55.65;27.05;;;;;;;3.98;56.55;100679.13;10342782;28;20056;-79
2023/03/04 08:24:47;;;;;;;41.70;21.08;;;;;;;3.94;56.28;100682.66;10342813;28;20103;-79
2023/03/04 08:29:49;;;;;;;43.40;19.13;;;;;;;3.86;55.86;100679.38;10343156;28;20050;-79
2023/03/04 08:34:51;;;;;;;44.53;20.60;;;;;;;4.02;55.89;100685.94;10344721;28;20525;-79
2023/03/04 08:39:52;;;;;;;42.53;19.48;;;;;;;4.13;55.57;100685.72;10332025;28;20054;-79
2023/03/04 08:44:54;;;;;;;39.70;18.42;;;;;;;4.27;55.18;100678.50;10343543;28;20064;-80
2023/03/04 08:49:58;;;;;;;32.20;15.75;;;;;;;4.37;54.76;100683.41;10343951;28;20050;-80
2023/03/04 08:55:00;;;;;;;34.17;15.13;;;;;;;4.41;54.69;100689.38;10344843;28;20058;-80
2023/03/04 09:00:04;;;;;;;44.55;22.00;;;;;;;4.57;54.35;100689.00;10346753;28;20083;-80
2023/03/04 09:05:06;;;;;;;34.97;14.27;;;;;;;4.48;54.04;100689.22;10345581;28;20137;-80
2023/03/04 09:10:10;;;;;;;41.35;20.05;;;;;;;4.43;53.88;100690.22;10353239;28;20044;-80
2023/03/04 09:15:12;;;;;;;43.33;22.25;;;;;;;4.58;54.06;100688.09;10355739;28;20060;-80
2023/03/04 09:20:16;;;;;;;32.72;14.02;;;;;;;4.72;53.74;100681.75;10351970;28;20775;-81
2023/03/04 09:31:59;;;;;;;30.75;12.23;;;;;;;4.83;52.93;100687.50;10343047;28;20550;-80
2023/03/04 09:37:07;;;;;;;24.48;11.05;;;;;;;5.01;52.81;100682.72;10343288;28;20080;-80
2023/03/04 09:42:23;;;;;;;29.95;9.30;;;;;;;4.88;52.12;100683.94;10340573;28;20093;-81
2023/03/04 09:47:26;;;;;;;26.08;9.70;;;;;;;5.00;52.92;100681.03;10346101;28;20057;-81
2023/03/04 09:53:10;;;;;;;25.77;10.88;;;;;;;4.91;52.66;100688.19;10335853;28;20050;-80
2023/03/04 09:58:15;;;;;;;24.85;11.10;;;;;;;4.96;52.82;100684.59;10339558;28;20151;-80
2023/03/04 10:03:29;;;;;;;24.85;11.32;;;;;;;4.93;52.58;100683.81;10339655;28;20049;-80
2023/03/04 10:08:37;;;;;;;26.35;11.45;;;;;;;5.10;52.80;100686.84;10337139;28;20050;-80
2023/03/04 10:13:50;;;;;;;22.60;9.95;;;;;;;4.86;52.32;100682.28;10342981;28;20509;-79
2023/03/04 10:19:17;;;;;;;21.33;9.98;;;;;;;5.02;52.62;100674.09;10341257;28;20046;-80
2023/03/04 10:24:23;;;;;;;22.33;10.75;;;;;;;5.27;52.25;100669.94;10339353;28;20503;-80
2023/03/04 10:29:29;;;;;;;20.42;9.93;;;;;;;5.33;52.28;100661.16;10338633;28;20046;-80
2023/03/04 10:34:34;;;;;;;27.73;10.00;;;;;;;5.30;52.18;100658.66;10341127;28;20054;-80
2023/03/04 10:39:41;;;;;;;22.83;9.57;;;;;;;5.32;52.37;100656.88;10340293;28;20046;-80
2023/03/04 10:45:18;;;;;;;25.10;9.38;;;;;;;5.19;52.11;100655.47;10342025;28;20077;-81
2023/03/04 10:50:27;;;;;;;20.50;8.93;;;;;;;5.26;52.09;100652.69;10350265;28;20046;-80
2023/03/04 10:55:42;;;;;;;17.90;8.23;;;;;;;5.38;51.67;100651.50;10348316;28;20054;-80
2023/03/04 11:00:59;;;;;;;20.38;8.38;;;;;;;5.50;51.46;100653.75;10347526;28;20060;-80
2023/03/04 11:06:21;;;;;;;21.20;7.57;;;;;;;5.64;51.43;100646.44;10356042;28;20057;-79
2023/03/04 11:11:41;;;;;;;15.95;7.20;;;;;;;5.76;51.40;100645.25;10341172;28;20046;-81
2023/03/04 11:16:52;;;;;;;21.35;8.35;;;;;;;5.94;51.04;100639.53;10347427;28;20053;-80
2023/03/04 11:22:13;;;;;;;18.83;7.68;;;;;;;6.04;50.97;100640.97;10407223;27;20602;-67
2023/03/04 11:27:19;;;;;;;18.48;7.22;;;;;;;6.42;50.21;100625.06;10372159;28;20049;-68
2023/03/04 11:32:24;;;;;;;17.17;6.85;;;;;;;6.68;49.89;100624.22;10375556;28;20042;-67
2023/03/04 11:37:46;;;;;;;14.57;6.22;;;;;;;6.95;48.78;100612.91;10377611;28;20832;-67
2023/03/04 11:43:13;;;;;;;13.02;6.18;;;;;;;7.31;48.28;100598.59;10375735;28;20064;-67
2023/03/04 11:48:24;;;;;;;11.10;5.57;;;;;;;7.33;47.95;100593.34;10376986;28;20064;-67
2023/03/04 11:53:53;;;;;;;14.07;6.03;;;;;;;7.44;47.20;100591.22;10378286;28;20061;-67
2023/03/04 11:59:16;;;;;;;11.65;5.20;;;;;;;7.07;47.63;100579.53;10375007;28;20168;-67
2023/03/04 12:04:33;;;;;;;14.55;5.60;;;;;;;7.10;47.98;100579.41;10376353;28;20049;-67
2023/03/04 12:09:53;;;;;;;16.58;5.90;;;;;;;7.11;47.70;100572.47;10376043;28;20350;-67
2023/03/04 12:15:22;;;;;;;11.75;5.38;;;;;;;7.18;47.82;100560.94;10376166;28;20048;-66
2023/03/04 12:20:40;;;;;;;12.57;5.07;;;;;;;7.44;47.42;100546.97;10369023;28;20530;-66
2023/03/04 12:26:20;;;;;;;15.38;5.40;;;;;;;7.57;47.32;100545.63;10373125;28;20142;-66
2023/03/04 12:31:31;;;;;;;11.55;5.40;;;;;;;7.37;47.01;100535.06;10353357;28;20062;-67
2023/03/04 12:36:44;;;;;;;15.73;5.65;;;;;;;7.41;47.40;100540.13;10346306;28;20766;-67
2023/03/04 12:42:11;;;;;;;12.13;5.75;;;;;;;7.65;47.30;100536.59;10343449;28;21073;-67
2023/03/04 12:47:58;;;;;;;15.55;6.32;;;;;;;7.49;47.17;100532.88;10349002;28;20046;-67
2023/03/04 12:53:05;;;;;;;13.63;6.43;;;;;;;7.57;47.66;100517.81;10344758;28;20522;-67
2023/03/04 12:58:31;;;;;;;12.68;6.28;;;;;;;7.54;47.30;100515.34;10347073;28;20053;-67
2023/03/04 13:03:51;;;;;;;13.82;6.65;;;;;;;7.43;47.27;100511.44;10347835;28;20539;-67
2023/03/04 13:09:11;;;;;;;12.23;5.50;;;;;;;7.48;47.46;100505.16;10349047;28;20067;-67
2023/03/04 13:14:13;;;;;;;12.73;5.93;;;;;;;7.63;47.84;100501.97;10344732;28;20060;-67
2023/03/04 13:19:46;;;;;;;12.68;5.28;;;;;;;7.63;46.97;100491.56;10343857;28;20569;-66
2023/03/04 13:24:51;;;;;;;12.50;4.93;;;;;;;7.47;47.42;100489.63;10347033;28;20872;-66
2023/03/04 13:29:52;;;;;;;10.85;5.32;;;;;;;7.32;48.09;100493.66;10342420;28;20190;-67
2023/03/04 13:34:56;;;;;;;13.90;5.70;;;;;;;7.28;48.26;100488.59;10342116;28;20825;-67
2023/03/04 13:40:34;;;;;;;11.02;5.75;;;;;;;6.94;48.98;100495.03;10345678;28;20046;-67
2023/03/04 13:45:38;;;;;;;16.55;5.30;;;;;;;7.01;48.94;100490.47;10344570;28;20045;-67
2023/03/04 13:50:45;;;;;;;14.35;5.78;;;;;;;6.69;49.64;100493.38;10347713;28;20521;-67
2023/03/04 13:56:10;;;;;;;12.90;6.18;;;;;;;6.73;49.90;100484.56;10349763;28;20054;-67
2023/03/04 14:01:23;;;;;;;15.98;7.88;;;;;;;6.82;49.85;100487.69;10343800;28;20281;-67
2023/03/04 14:06:28;;;;;;;15.98;8.68;;;;;;;6.85;50.27;100484.13;10347009;28;20049;-67
2023/03/04 14:11:37;;;;;;;17.83;9.45;;;;;;;6.98;50.35;100483.63;10344607;28;20050;-67
2023/03/04 14:16:56;;;;;;;15.23;8.90;;;;;;;6.79;50.64;100479.16;10346350;28;20050;-66
2023/03/04 14:21:59;;;;;;;19.30;9.95;;;;;;;6.92;50.57;100469.97;10345254;28;20060;-66
2023/03/04 14:27:12;;;;;;;13.85;9.02;;;;;;;7.08;50.28;100468.56;10343839;28;20077;-67
2023/03/04 14:32:14;;;;;;;15.98;9.52;;;;;;;7.16;50.33;100456.94;10344364;28;20048;-66
2023/03/04 14:37:25;;;;;;;12.27;8.70;;;;;;;6.96;50.70;100455.97;10346314;28;20068;-66
2023/03/04 14:42:39;;;;;;;16.23;10.40;;;;;;;7.03;50.65;100439.25;10345673;28;20060;-66
2023/03/04 14:47:45;;;;;;;16.08;11.13;;;;;;;6.86;51.18;100444.22;10341485;28;21182;-67
2023/03/04 14:52:50;;;;;;;17.20;10.43;;;;;;;6.59;51.81;100442.63;10341406;28;20441;-67
2023/03/04 14:58:04;;;;;;;13.45;9.88;;;;;;;6.57;52.07;100431.44;10344339;28;20050;-67
2023/03/04 15:03:27;;;;;;;13.60;9.98;;;;;;;6.43;52.55;100431.91;10344440;28;20068;-67
2023/03/04 15:08:39;;;;;;;15.55;9.57;;;;;;;6.71;52.10;100427.44;10339245;28;21114;-67
2023/03/04 15:13:44;;;;;;;16.75;9.95;;;;;;;6.67;52.11;100425.84;10342342;28;20060;-67
2023/03/04 15:19:41;;;;;;;15.20;9.57;;;;;;;6.64;52.67;100418.16;10344130;28;20159;-67
2023/03/04 15:24:42;;;;;;;12.55;8.73;;;;;;;6.58;52.57;100407.97;10345675;28;20068;-67
2023/03/04 15:29:44;;;;;;;14.95;8.93;;;;;;;6.71;52.46;100421.38;10344783;28;20046;-67
2023/03/04 15:34:46;;;;;;;15.50;9.05;;;;;;;6.66;52.68;100411.16;10343361;28;20423;-67
2023/03/04 15:39:49;;;;;;;13.57;9.45;;;;;;;6.69;52.72;100412.78;10341872;28;20786;-66
2023/03/04 15:44:50;;;;;;;13.25;8.60;;;;;;;6.59;52.95;100403.63;10344066;28;20177;-67
2023/03/04 15:49:52;;;;;;;12.43;8.40;;;;;;;6.63;53.03;100406.09;10341369;28;20064;-66
2023/03/04 15:54:54;;;;;;;10.85;8.07;;;;;;;6.53;53.32;100403.84;10343396;28;20045;-66
2023/03/04 15:59:56;;;;;;;13.73;8.13;;;;;;;6.53;53.24;100396.88;10343683;28;20054;-66
2023/03/04 16:04:58;;;;;;;11.40;8.07;;;;;;;6.54;53.26;100409.00;10346046;28;20050;-67
2023/03/04 16:10:06;;;;;;;13.90;7.68;;;;;;;6.48;53.59;100396.22;10353274;28;20181;-67
2023/03/04 16:15:17;;;;;;;14.38;8.07;;;;;;;6.33;53.99;100400.19;10351678;28;20049;-66
2023/03/04 16:20:23;;;;;;;14.07;8.00;;;;;;;6.26;54.10;100403.94;10351913;28;20383;-66
2023/03/04 16:25:25;;;;;;;15.45;7.95;;;;;;;6.26;54.22;100403.94;10349375;28;20068;-67
2023/03/04 16:30:28;;;;;;;12.85;8.23;;;;;;;6.19;54.47;100412.78;10351143;28;20065;-67
2023/03/04 16:35:30;;;;;;;15.25;9.23;;;;;;;6.20;54.77;100400.66;10349216;28;20057;-67
2023/03/04 16:40:32;;;;;;;12.65;8.43;;;;;;;6.10;55.15;100402.69;10346259;28;20604;-66
2023/03/04 16:45:36;;;;;;;13.48;8.35;;;;;;;5.91;55.64;100405.97;10347946;28;20046;-66
2023/03/04 16:50:38;;;;;;;15.68;9.55;;;;;;;5.78;56.08;100408.13;10344445;28;20060;-67
2023/03/04 16:55:40;;;;;;;15.85;9.50;;;;;;;5.74;56.31;100403.94;10368562;28;20048;-67
2023/03/04 17:00:41;;;;;;;17.20;9.38;;;;;;;5.79;56.26;100399.44;10356606;28;20157;-67
2023/03/04 17:05:43;;;;;;;18.92;9.77;;;;;;;5.66;56.80;100398.16;10346585;28;20049;-66
2023/03/04 17:10:46;;;;;;;15.80;9.43;;;;;;;5.60;56.89;100398.34;10358542;28;20054;-66
2023/03/04 17:15:47;;;;;;;15.18;9.55;;;;;;;5.68;56.58;100398.09;10358120;28;20100;-67
2023/03/04 17:20:49;;;;;;;15.70;8.88;;;;;;;5.56;56.96;100391.56;10345637;28;20127;-67
2023/03/04 17:25:56;;;;;;;16.30;9.80;;;;;;;5.51;57.21;100399.47;10356810;28;20050;-67
2023/03/04 17:30:57;;;;;;;13.02;8.10;;;;;;;5.49;57.29;100400.44;10354032;28;20053;-67
2023/03/04 17:35:59;;;;;;;14.48;8.27;;;;;;;5.47;57.40;100397.06;10355719;28;20053;-67
2023/03/04 17:41:05;;;;;;;11.70;8.32;;;;;;;5.50;57.42;100396.94;10347159;28;20096;-67
2023/03/04 17:46:11;;;;;;;16.67;8.50;;;;;;;5.51;57.72;100398.66;10350230;28;20050;-66
2023/03/04 17:51:13;;;;;;;15.25;8.63;;;;;;;5.31;58.06;100396.66;10348236;28;20049;-67
2023/03/04 17:56:15;;;;;;;14.13;7.80;;;;;;;5.29;58.50;100398.44;10355308;28;20045;-66
2023/03/04 18:01:19;;;;;;;13.30;7.47;;;;;;;5.31;59.03;100396.66;10366246;28;20046;-67
2023/03/04 18:06:24;;;;;;;14.77;7.70;;;;;;;5.23;59.65;100398.66;10360962;28;20169;-67
2023/03/04 18:11:26;;;;;;;14.20;7.45;;;;;;;5.16;60.48;100402.34;10352937;28;20058;-67
2023/03/04 18:16:29;;;;;;;11.95;7.97;;;;;;;5.17;60.80;100404.00;10364368;28;20076;-67
2023/03/04 18:21:31;;;;;;;12.50;7.72;;;;;;;5.13;61.28;100401.56;10343859;28;20433;-67
2023/03/04 18:26:33;;;;;;;14.75;9.00;;;;;;;5.20;61.35;100409.13;10345395;28;20057;-66
2023/03/04 18:31:35;;;;;;;13.57;8.32;;;;;;;5.26;61.73;100410.66;10338603;28;20049;-66
2023/03/04 18:36:37;;;;;;;15.07;8.60;;;;;;;5.32;61.80;100402.69;10352751;28;20145;-67
2023/03/04 18:41:39;;;;;;;15.70;10.15;;;;;;;5.49;61.69;100410.81;10345217;28;20054;-67
2023/03/04 18:46:49;;;;;;;13.70;9.20;;;;;;;5.43;61.79;100403.22;10348718;28;20410;-66
2023/03/04 18:51:51;;;;;;;15.90;10.05;;;;;;;5.34;62.37;100400.91;10346469;28;20049;-66
2023/03/04 18:56:55;;;;;;;17.48;11.52;;;;;;;5.39;62.51;100407.66;10364374;28;20064;-66
2023/03/04 19:02:01;;;;;;;21.58;12.27;;;;;;;5.45;62.81;100404.03;10350575;28;20446;-67
2023/03/04 19:07:02;;;;;;;15.57;11.00;;;;;;;5.43;62.55;100404.06;10383161;28;20076;-67
2023/03/04 19:12:05;;;;;;;17.33;11.07;;;;;;;5.39;62.85;100410.25;10356345;28;20387;-66
2023/03/04 19:17:07;;;;;;;15.65;10.82;;;;;;;5.52;62.81;100400.34;10347401;28;20046;-70
2023/03/04 19:22:09;;;;;;;16.92;11.57;;;;;;;5.50;62.81;100397.78;10344571;28;20053;-64
2023/03/04 19:27:11;;;;;;;14.00;10.13;;;;;;;5.30;63.32;100400.16;10385536;28;20056;-65
2023/03/04 19:32:16;;;;;;;17.55;10.93;;;;;;;5.14;63.89;100392.91;10420195;28;20528;-65
2023/03/04 19:37:17;;;;;;;19.13;11.95;;;;;;;5.15;63.77;100398.03;10424830;28;20463;-65
2023/03/04 19:42:19;;;;;;;16.40;10.43;;;;;;;5.01;64.32;100397.59;10428977;28;20037;-64
2023/03/04 19:47:21;;;;;;;15.95;10.70;;;;;;;4.89;64.66;100397.97;10438187;28;20049;-65
2023/03/04 19:52:22;;;;;;;15.05;10.85;;;;;;;4.98;64.56;100391.66;10445852;28;20548;-65
2023/03/04 19:57:24;;;;;;;15.18;10.95;;;;;;;4.99;64.45;100388.16;10442300;28;20059;-65
2023/03/04 20:02:26;;;;;;;15.82;11.60;;;;;;;4.87;64.79;100388.53;10436936;28;20052;-65
2023/03/04 20:07:27;;;;;;;17.08;12.30;;;;;;;4.97;64.45;100387.34;10434952;28;20123;-65
2023/03/04 20:12:31;;;;;;;17.85;12.32;;;;;;;5.01;64.47;100391.56;10444835;28;20056;-65
2023/03/04 20:17:32;;;;;;;15.30;11.70;;;;;;;5.02;64.32;100388.09;10434255;28;20060;-65
2023/03/04 20:22:34;;;;;;;17.55;11.82;;;;;;;5.03;64.38;100387.16;10442882;28;20044;-64
2023/03/04 20:27:35;;;;;;;17.90;12.65;;;;;;;5.03;64.40;100385.44;10439099;28;20045;-64
2023/03/04 20:32:37;;;;;;;15.18;12.07;;;;;;;5.10;64.10;100380.94;10451596;28;20056;-65
2023/03/04 20:37:40;;;;;;;17.58;13.32;;;;;;;5.02;64.39;100393.28;10419696;28;20150;-64
2023/03/04 20:42:41;;;;;;;18.30;13.32;;;;;;;4.98;64.26;100399.44;10435664;28;20484;-64
2023/03/04 20:47:43;;;;;;;20.20;15.15;;;;;;;4.91;64.36;100393.56;10437688;28;20405;-66
2023/03/04 20:52:47;;;;;;;20.27;15.38;;;;;;;4.92;64.26;100390.09;10434486;28;20059;-65
2023/03/04 20:57:49;;;;;;;18.63;14.65;;;;;;;5.03;64.03;100387.16;10453962;28;20052;-65
2023/03/04 21:02:50;;;;;;;22.10;15.65;;;;;;;5.03;64.01;100384.59;10430905;28;20076;-65
2023/03/04 21:07:54;;;;;;;20.67;14.52;;;;;;;5.00;63.97;100379.50;10433008;28;20041;-65
2023/03/04 21:12:55;;;;;;;19.42;13.65;;;;;;;4.98;64.13;100383.88;10433714;28;20052;-64
2023/03/04 21:17:57;;;;;;;18.75;14.05;;;;;;;5.07;63.89;100375.81;10435138;28;20056;-65
2023/03/04 21:22:59;;;;;;;21.65;13.35;;;;;;;5.13;63.50;100375.63;10415348;28;20598;-65
2023/03/04 21:28:00;;;;;;;18.65;13.70;;;;;;;5.12;63.39;100379.13;10432031;28;21216;-64
2023/03/04 21:33:03;;;;;;;19.50;13.18;;;;;;;4.99;63.61;100373.47;10432098;28;20056;-65
2023/03/04 21:38:05;;;;;;;19.50;12.07;;;;;;;5.00;63.26;100374.31;10431915;28;20048;-65
2023/03/04 21:43:07;;;;;;;17.50;10.10;;;;;;;5.00;62.93;100375.19;10430551;28;20040;-65
2023/03/04 21:48:10;;;;;;;16.55;10.40;;;;;;;5.06;62.83;100369.81;10450171;28;20045;-65
2023/03/04 21:53:12;;;;;;;19.02;9.80;;;;;;;5.07;62.30;100370.63;10440302;28;20529;-65
2023/03/04 21:58:14;;;;;;;16.50;10.40;;;;;;;5.08;62.47;100369.75;10457344;28;20574;-64
2023/03/04 22:03:18;;;;;;;17.50;10.52;;;;;;;5.07;62.17;100375.81;10452641;28;20052;-65
2023/03/04 22:08:20;;;;;;;18.67;11.88;;;;;;;5.06;62.40;100364.63;10444573;28;20408;-65
2023/03/04 22:13:22;;;;;;;16.58;11.32;;;;;;;5.06;62.32;100363.75;10441816;28;20416;-65
2023/03/04 22:18:25;;;;;;;19.55;12.27;;;;;;;5.04;62.18;100368.16;10469472;28;20920;-65
2023/03/04 22:23:27;;;;;;;21.67;12.68;;;;;;;5.00;62.22;100370.00;10432764;28;20053;-65
2023/03/04 22:28:30;;;;;;;19.58;12.82;;;;;;;4.99;62.29;100367.41;10446043;28;20088;-65
2023/03/04 22:33:36;;;;;;;24.75;13.88;;;;;;;4.92;62.19;100360.75;10425205;28;20481;-65
2023/03/04 22:38:38;;;;;;;19.85;12.52;;;;;;;4.86;62.09;100366.94;10460717;28;20105;-65
2023/03/04 22:43:40;;;;;;;21.13;13.25;;;;;;;4.84;62.22;100367.91;10409613;28;20060;-65
2023/03/04 22:48:42;;;;;;;24.52;13.25;;;;;;;4.86;62.00;100366.94;10441953;28;20148;-65
2023/03/04 22:53:43;;;;;;;21.60;12.85;;;;;;;4.85;61.92;100364.41;10467154;28;20071;-65
2023/03/04 22:58:46;;;;;;;24.77;13.00;;;;;;;4.87;61.79;100366.06;10432703;28;20075;-66
2023/03/04 23:03:48;;;;;;;25.95;13.52;;;;;;;4.95;61.77;100368.41;10427223;28;20215;-65
2023/03/04 23:08:51;;;;;;;25.25;15.27;;;;;;;4.84;61.75;100367.91;10426523;28;20088;-65
2023/03/04 23:13:54;;;;;;;25.83;13.77;;;;;;;4.89;61.69;100363.41;10408271;28;20053;-65
2023/03/04 23:18:56;;;;;;;24.27;13.40;;;;;;;4.85;61.56;100359.22;10440308;28;20061;-65